AFL1335 ULAA-UUEE
Flight info
| Callsign | AFL1335 |
|---|---|
| Flight time | N/A |
| Altitude | 36000 |
| Route | ABELU3J ABELU T825 UREPI P65 ROMTA ROMTA3E |
| Aircraft | A320/M-SDE3FGHIRWY/LB1 |
Departure
| Time | 2026-04-26 20:56 |
|---|---|
| Airport | Talagi Airport (ULAA) |
Arrival
| Time | N/A |
|---|---|
| Airport | Sheremetyevo International Airport (UUEE) |
| Time | Latitude | Longitude | Altitude | Speed | Heading |
|---|---|---|---|---|---|
| 2026-04-26 20:45 | 64.59669 | 40.71399 | 60 ft | 0 kts | 179° |
| 2026-04-26 20:47 | 64.59677 | 40.71398 | 54 ft | 2 kts | 186° |
| 2026-04-26 20:48 | 64.59693 | 40.71405 | 52 ft | 2 kts | 202° |
| 2026-04-26 20:48 | 64.59708 | 40.71424 | 54 ft | 2 kts | 231° |
| 2026-04-26 20:48 | 64.59716 | 40.71457 | 56 ft | 2 kts | 259° |
| 2026-04-26 20:48 | 64.59718 | 40.71493 | 57 ft | 1 kts | 274° |
| 2026-04-26 20:49 | 64.59717 | 40.71504 | 57 ft | 0 kts | 277° |
| 2026-04-26 20:51 | 64.59717 | 40.71502 | 57 ft | 1 kts | 277° |
| 2026-04-26 20:51 | 64.59723 | 40.71398 | 59 ft | 11 kts | 277° |
| 2026-04-26 20:52 | 64.59733 | 40.71149 | 60 ft | 15 kts | 273° |
| 2026-04-26 20:52 | 64.59753 | 40.70890 | 59 ft | 20 kts | 277° |
| 2026-04-26 20:52 | 64.59768 | 40.70524 | 51 ft | 19 kts | 276° |
| 2026-04-26 20:52 | 64.59805 | 40.70326 | 55 ft | 11 kts | 310° |
| 2026-04-26 20:53 | 64.59839 | 40.70200 | 55 ft | 9 kts | 305° |
| 2026-04-26 20:53 | 64.59916 | 40.70174 | 52 ft | 14 kts | 4° |
| 2026-04-26 20:53 | 64.60015 | 40.70201 | 51 ft | 14 kts | 9° |
| 2026-04-26 20:53 | 64.60106 | 40.70149 | 54 ft | 16 kts | 283° |
| 2026-04-26 20:54 | 64.60119 | 40.69840 | 56 ft | 21 kts | 276° |
| 2026-04-26 20:54 | 64.60117 | 40.69464 | 55 ft | 22 kts | 271° |
| 2026-04-26 20:54 | 64.60162 | 40.69139 | 54 ft | 9 kts | 255° |
| 2026-04-26 20:54 | 64.60148 | 40.69158 | 53 ft | 0 kts | 90° |
| 2026-04-26 20:55 | 64.60148 | 40.69176 | 51 ft | 12 kts | 90° |
| 2026-04-26 20:55 | 64.60110 | 40.70011 | 55 ft | 88 kts | 96° |
| 2026-04-26 20:56 | 64.60020 | 40.71877 | 60 ft | 142 kts | 96° |
| 2026-04-26 20:56 | 64.59889 | 40.74399 | 438 ft | 157 kts | 96° |
| 2026-04-26 20:56 | 64.59738 | 40.76910 | 1233 ft | 156 kts | 95° |
| 2026-04-26 20:56 | 64.59599 | 40.79362 | 2029 ft | 147 kts | 94° |
| 2026-04-26 20:57 | 64.59481 | 40.81682 | 2703 ft | 142 kts | 95° |
| 2026-04-26 20:57 | 64.59336 | 40.83935 | 3238 ft | 148 kts | 109° |
| 2026-04-26 20:57 | 64.58511 | 40.85632 | 3488 ft | 177 kts | 164° |
| 2026-04-26 20:57 | 64.57244 | 40.85126 | 3705 ft | 207 kts | 209° |
| 2026-04-26 20:58 | 64.55994 | 40.83096 | 3936 ft | 232 kts | 213° |
| 2026-04-26 20:58 | 64.54535 | 40.81124 | 4272 ft | 254 kts | 202° |
| 2026-04-26 20:58 | 64.52845 | 40.79611 | 4941 ft | 264 kts | 197° |
| 2026-04-26 20:58 | 64.51055 | 40.78257 | 5778 ft | 269 kts | 196° |
| 2026-04-26 20:59 | 64.49278 | 40.76967 | 6596 ft | 273 kts | 195° |
| 2026-04-26 20:59 | 64.47453 | 40.75625 | 7399 ft | 277 kts | 196° |
| 2026-04-26 20:59 | 64.45609 | 40.74230 | 8222 ft | 280 kts | 197° |
| 2026-04-26 20:59 | 64.43746 | 40.72790 | 9068 ft | 283 kts | 197° |
| 2026-04-26 21:00 | 64.41869 | 40.71327 | 9866 ft | 287 kts | 197° |
| 2026-04-26 21:00 | 64.39928 | 40.69797 | 10245 ft | 306 kts | 197° |
| 2026-04-26 21:00 | 64.37833 | 40.68142 | 10447 ft | 329 kts | 197° |
| 2026-04-26 21:00 | 64.35623 | 40.66397 | 10935 ft | 339 kts | 197° |
| 2026-04-26 21:01 | 64.33376 | 40.64618 | 11635 ft | 343 kts | 197° |
| 2026-04-26 21:01 | 64.31112 | 40.62826 | 12360 ft | 345 kts | 197° |
| 2026-04-26 21:01 | 64.28861 | 40.61046 | 13083 ft | 347 kts | 197° |
| 2026-04-26 21:01 | 64.26575 | 40.59245 | 13857 ft | 347 kts | 197° |
| 2026-04-26 21:02 | 64.24284 | 40.57442 | 14538 ft | 349 kts | 197° |
| 2026-04-26 21:02 | 64.21985 | 40.55638 | 15225 ft | 350 kts | 198° |
| 2026-04-26 21:02 | 64.19678 | 40.53831 | 15894 ft | 351 kts | 198° |
| 2026-04-26 21:02 | 64.17363 | 40.52017 | 16539 ft | 353 kts | 198° |
| 2026-04-26 21:03 | 64.15030 | 40.50200 | 17163 ft | 355 kts | 198° |
| 2026-04-26 21:03 | 64.12687 | 40.48379 | 17774 ft | 357 kts | 198° |
| 2026-04-26 21:03 | 64.10329 | 40.46548 | 18324 ft | 359 kts | 198° |
| 2026-04-26 21:03 | 64.07958 | 40.44715 | 18873 ft | 360 kts | 198° |
| 2026-04-26 21:04 | 64.05583 | 40.42891 | 19441 ft | 360 kts | 198° |
| 2026-04-26 21:04 | 64.03206 | 40.41061 | 20013 ft | 361 kts | 198° |
| 2026-04-26 21:04 | 64.00829 | 40.39235 | 20582 ft | 361 kts | 198° |
| 2026-04-26 21:04 | 63.98443 | 40.37396 | 21136 ft | 361 kts | 198° |
| 2026-04-26 21:05 | 63.96061 | 40.35559 | 21671 ft | 362 kts | 198° |
| 2026-04-26 21:05 | 63.93673 | 40.33722 | 22203 ft | 363 kts | 198° |
| 2026-04-26 21:05 | 63.91278 | 40.31885 | 22730 ft | 363 kts | 198° |
| 2026-04-26 21:05 | 63.88875 | 40.30055 | 23210 ft | 366 kts | 199° |
| 2026-04-26 21:06 | 63.86456 | 40.28207 | 23579 ft | 368 kts | 199° |
| 2026-04-26 21:06 | 63.84045 | 40.26358 | 23908 ft | 371 kts | 199° |
| 2026-04-26 21:06 | 63.81588 | 40.24486 | 24241 ft | 374 kts | 199° |
| 2026-04-26 21:06 | 63.79113 | 40.22608 | 24558 ft | 377 kts | 199° |
| 2026-04-26 21:07 | 63.76618 | 40.20721 | 24874 ft | 380 kts | 199° |
| 2026-04-26 21:07 | 63.74099 | 40.18818 | 25190 ft | 383 kts | 199° |
| 2026-04-26 21:07 | 63.71566 | 40.16902 | 25502 ft | 386 kts | 199° |
| 2026-04-26 21:07 | 63.69011 | 40.14947 | 25811 ft | 389 kts | 199° |
| 2026-04-26 21:08 | 63.67281 | 40.13618 | 26020 ft | 390 kts | 199° |
| 2026-04-26 21:08 | 63.64650 | 40.11596 | 23752 ft | 436 kts | 199° |
| 2026-04-26 21:08 | 63.61514 | 40.09180 | 21210 ft | 506 kts | 199° |
| 2026-04-26 21:08 | 63.58200 | 40.06631 | 22108 ft | 485 kts | 199° |
| 2026-04-26 21:09 | 63.55181 | 40.04313 | 24542 ft | 438 kts | 199° |
| 2026-04-26 21:09 | 63.52355 | 40.02156 | 25844 ft | 419 kts | 199° |
| 2026-04-26 21:09 | 63.49649 | 40.00116 | 26969 ft | 402 kts | 199° |
| 2026-04-26 21:09 | 63.47013 | 39.98140 | 27558 ft | 399 kts | 199° |
| 2026-04-26 21:10 | 63.44376 | 39.96159 | 27897 ft | 400 kts | 199° |
| 2026-04-26 21:10 | 63.41747 | 39.94046 | 28189 ft | 403 kts | 201° |
| 2026-04-26 21:10 | 63.39159 | 39.91810 | 28446 ft | 405 kts | 202° |
| 2026-04-26 21:10 | 63.36538 | 39.89467 | 28711 ft | 407 kts | 202° |
| 2026-04-26 21:11 | 63.33899 | 39.87097 | 28975 ft | 410 kts | 202° |
| 2026-04-26 21:11 | 63.31246 | 39.84740 | 29232 ft | 412 kts | 202° |
| 2026-04-26 21:11 | 63.28570 | 39.82394 | 29489 ft | 414 kts | 201° |
| 2026-04-26 21:11 | 63.25876 | 39.80055 | 29723 ft | 417 kts | 201° |
| 2026-04-26 21:12 | 63.23173 | 39.77724 | 29997 ft | 417 kts | 201° |
| 2026-04-26 21:12 | 63.20456 | 39.75395 | 30232 ft | 418 kts | 201° |
| 2026-04-26 21:12 | 63.17740 | 39.73073 | 30475 ft | 419 kts | 201° |
| 2026-04-26 21:12 | 63.15012 | 39.70756 | 30713 ft | 421 kts | 201° |
| 2026-04-26 21:13 | 63.12273 | 39.68436 | 30946 ft | 422 kts | 201° |
| 2026-04-26 21:13 | 63.09527 | 39.66106 | 31182 ft | 423 kts | 201° |
| 2026-04-26 21:13 | 63.06775 | 39.63760 | 31418 ft | 425 kts | 201° |
| 2026-04-26 21:13 | 63.04015 | 39.61412 | 31662 ft | 426 kts | 201° |
| 2026-04-26 21:14 | 63.01247 | 39.59067 | 31901 ft | 427 kts | 201° |
| 2026-04-26 21:14 | 62.98466 | 39.56716 | 32136 ft | 428 kts | 201° |
| 2026-04-26 21:14 | 62.95680 | 39.54366 | 32369 ft | 430 kts | 201° |
| 2026-04-26 21:14 | 62.92878 | 39.52002 | 32582 ft | 432 kts | 201° |
| 2026-04-26 21:15 | 62.90065 | 39.49636 | 32806 ft | 433 kts | 201° |
| 2026-04-26 21:15 | 62.87248 | 39.47275 | 33034 ft | 434 kts | 201° |
| 2026-04-26 21:15 | 62.84421 | 39.44916 | 33278 ft | 435 kts | 201° |
| 2026-04-26 21:15 | 62.81587 | 39.42557 | 33514 ft | 436 kts | 201° |
| 2026-04-26 21:16 | 62.78733 | 39.40182 | 33729 ft | 438 kts | 201° |
| 2026-04-26 21:16 | 62.75883 | 39.37814 | 33932 ft | 438 kts | 201° |
| 2026-04-26 21:16 | 62.73063 | 39.35476 | 34143 ft | 439 kts | 201° |
| 2026-04-26 21:16 | 62.70205 | 39.33105 | 34355 ft | 440 kts | 201° |
| 2026-04-26 21:17 | 62.67345 | 39.30736 | 34562 ft | 440 kts | 201° |
| 2026-04-26 21:17 | 62.64481 | 39.28368 | 34753 ft | 441 kts | 201° |
| 2026-04-26 21:17 | 62.61613 | 39.26004 | 34926 ft | 442 kts | 201° |
| 2026-04-26 21:17 | 62.58722 | 39.23630 | 35102 ft | 442 kts | 201° |
| 2026-04-26 21:18 | 62.55842 | 39.21273 | 35289 ft | 443 kts | 201° |
| 2026-04-26 21:18 | 62.52953 | 39.18915 | 35475 ft | 443 kts | 201° |
| 2026-04-26 21:18 | 62.50062 | 39.16560 | 35579 ft | 444 kts | 201° |
| 2026-04-26 21:19 | 62.44325 | 39.11885 | 35603 ft | 444 kts | 201° |
| 2026-04-26 21:19 | 62.38538 | 39.07203 | 35601 ft | 444 kts | 201° |
| 2026-04-26 21:20 | 62.32759 | 39.02552 | 35601 ft | 443 kts | 201° |
| 2026-04-26 21:20 | 62.26980 | 38.97912 | 35596 ft | 443 kts | 201° |
| 2026-04-26 21:21 | 62.21191 | 38.93287 | 35594 ft | 443 kts | 200° |
| 2026-04-26 21:21 | 62.15394 | 38.88663 | 35592 ft | 443 kts | 201° |
| 2026-04-26 21:22 | 62.09649 | 38.84096 | 35591 ft | 444 kts | 200° |
| 2026-04-26 21:22 | 62.03853 | 38.79511 | 35585 ft | 444 kts | 200° |
| 2026-04-26 21:23 | 61.95157 | 38.72681 | 35582 ft | 444 kts | 200° |
| 2026-04-26 21:23 | 61.89284 | 38.68968 | 35584 ft | 443 kts | 192° |
| 2026-04-26 21:24 | 61.83228 | 38.66400 | 35591 ft | 442 kts | 192° |
| 2026-04-26 21:24 | 61.77208 | 38.63861 | 35586 ft | 441 kts | 192° |
| 2026-04-26 21:25 | 61.71213 | 38.61339 | 35588 ft | 441 kts | 192° |
| 2026-04-26 21:25 | 61.65181 | 38.58791 | 35567 ft | 441 kts | 192° |
| 2026-04-26 21:26 | 61.59149 | 38.56253 | 35560 ft | 442 kts | 192° |
| 2026-04-26 21:26 | 61.53122 | 38.53732 | 35554 ft | 442 kts | 192° |
| 2026-04-26 21:27 | 61.47081 | 38.51218 | 35557 ft | 442 kts | 192° |
| 2026-04-26 21:27 | 61.41050 | 38.48720 | 35547 ft | 442 kts | 192° |
| 2026-04-26 21:28 | 61.35051 | 38.46239 | 35538 ft | 443 kts | 192° |
| 2026-04-26 21:28 | 61.29006 | 38.43738 | 35529 ft | 443 kts | 192° |
| 2026-04-26 21:29 | 61.22945 | 38.41441 | 35525 ft | 443 kts | 186° |
| 2026-04-26 21:29 | 61.16805 | 38.40146 | 35521 ft | 443 kts | 187° |
| 2026-04-26 21:30 | 61.10671 | 38.38847 | 35519 ft | 443 kts | 187° |
| 2026-04-26 21:30 | 61.04538 | 38.37537 | 35526 ft | 443 kts | 187° |
| 2026-04-26 21:31 | 60.98402 | 38.36225 | 35509 ft | 444 kts | 187° |
| 2026-04-26 21:31 | 60.92255 | 38.34927 | 35505 ft | 444 kts | 187° |
| 2026-04-26 21:32 | 60.86141 | 38.33651 | 35508 ft | 444 kts | 187° |
| 2026-04-26 21:32 | 60.79982 | 38.32369 | 35500 ft | 444 kts | 187° |
| 2026-04-26 21:33 | 60.73830 | 38.31082 | 35500 ft | 444 kts | 187° |
| 2026-04-26 21:33 | 60.67686 | 38.29794 | 35503 ft | 444 kts | 187° |
| 2026-04-26 21:34 | 60.61540 | 38.28525 | 35505 ft | 443 kts | 187° |
| 2026-04-26 21:34 | 60.55402 | 38.27271 | 35491 ft | 443 kts | 187° |
| 2026-04-26 21:35 | 60.49259 | 38.26018 | 35490 ft | 443 kts | 187° |
| 2026-04-26 21:35 | 60.43125 | 38.24767 | 35483 ft | 443 kts | 187° |
| 2026-04-26 21:36 | 60.38024 | 38.23723 | 35482 ft | 443 kts | 187° |
| 2026-04-26 21:36 | 60.30893 | 38.22280 | 35474 ft | 443 kts | 187° |
| 2026-04-26 21:37 | 60.24755 | 38.21034 | 35453 ft | 443 kts | 187° |
| 2026-04-26 21:37 | 60.18625 | 38.19798 | 35465 ft | 442 kts | 187° |
| 2026-04-26 21:38 | 60.12505 | 38.18566 | 35460 ft | 442 kts | 187° |
| 2026-04-26 21:38 | 60.06391 | 38.17334 | 35462 ft | 441 kts | 187° |
| 2026-04-26 21:39 | 60.00275 | 38.16113 | 35458 ft | 441 kts | 186° |
| 2026-04-26 21:39 | 59.94161 | 38.14894 | 35449 ft | 441 kts | 187° |
| 2026-04-26 21:40 | 59.88084 | 38.13688 | 35440 ft | 441 kts | 186° |
| 2026-04-26 21:40 | 59.81970 | 38.12484 | 35440 ft | 441 kts | 186° |
| 2026-04-26 21:41 | 59.75853 | 38.11276 | 35433 ft | 441 kts | 186° |
| 2026-04-26 21:41 | 59.69705 | 38.10058 | 35423 ft | 441 kts | 186° |
| 2026-04-26 21:42 | 59.63647 | 38.08870 | 35432 ft | 440 kts | 186° |
| 2026-04-26 21:42 | 59.57546 | 38.07688 | 35420 ft | 440 kts | 186° |
| 2026-04-26 21:43 | 59.51444 | 38.06510 | 35412 ft | 440 kts | 186° |
| 2026-04-26 21:43 | 59.45346 | 38.05334 | 35402 ft | 440 kts | 186° |
| 2026-04-26 21:44 | 59.39249 | 38.04170 | 35402 ft | 440 kts | 186° |
| 2026-04-26 21:44 | 59.33151 | 38.03000 | 35401 ft | 440 kts | 186° |
| 2026-04-26 21:45 | 59.27089 | 38.01842 | 35398 ft | 440 kts | 186° |
| 2026-04-26 21:45 | 59.20979 | 38.00788 | 35380 ft | 440 kts | 185° |
| 2026-04-26 21:46 | 59.14880 | 37.99829 | 35393 ft | 440 kts | 185° |
| 2026-04-26 21:46 | 59.08785 | 37.98867 | 35399 ft | 439 kts | 185° |
| 2026-04-26 21:47 | 59.02689 | 37.97888 | 35390 ft | 439 kts | 186° |
| 2026-04-26 21:47 | 58.96605 | 37.96907 | 35388 ft | 439 kts | 186° |
| 2026-04-26 21:48 | 58.90525 | 37.95913 | 35388 ft | 438 kts | 186° |
| 2026-04-26 21:48 | 58.84446 | 37.94933 | 35384 ft | 438 kts | 186° |
| 2026-04-26 21:49 | 58.78369 | 37.93959 | 35384 ft | 438 kts | 185° |